Pagina principale
METAR-TAF:

METAR-TAF

Aeroporti :

Marham, Inghilterra

latitudine: 52-39N, longitudine: 000-34E, altezza: 23 m

Osservazione

Il bollettino è stato emesso 59 minuti fa, alle 22:50 UTC
Vento 10 kt da sud
Temperature 14°C
Umidità 77%
Pressione 1017 hPa
Visibilità 10 km o più
nessuna nube inferiore a 1500 m e nessun cumulonembo

METAR: EGYM 162250Z 19010KT CAVOK 14/10 Q1017 BLU

Ora: 00:49 (23:49 UTC)


TAF: mancante

Osservazioni e previsioni meteorologiche di più di 4000 aeroporti (messaggi METAR e TAF).

Le stazioni disponibili sono rappresentate dai dischi gialli e rossi sulla carta.

Puntare il mouse per vedere il nome della stazione.

Clicca sopra per visualizzare le osservazioni e previsioni meteorologiche.

Per cambiare la mappa : fare clic sui pulsanti verdi con una croce nera per ingrandire, il pulsante verde con un trattino per diminuire, o sulla freccia verde per le mappe adiacenti.


METAR-TAF: